Time;durP1;ratioP1;P1;durP2;ratioP2;P2;SDS_P1;SDS_P2;PMS_P1;PMS_P2;Temp;Humidity;BMP_temperature;BMP_pressure;BME280_temperature;BME280_humidity;BME280_pressure;Samples;Min_cycle;Max_cycle;Signal;HPM_P1;HPM_P2
2022/12/02 00:02:57;;;;;;;16.10;12.10;;;;;;;7.81;59.79;98351.53;8379362;28;20231;-69
2022/12/02 00:07:00;;;;;;;17.00;13.20;;;;;;;7.83;60.76;98352.34;8379937;28;20232;-70
2022/12/02 00:11:22;;;;;;;15.97;12.43;;;;;;;8.01;60.31;98352.72;8379830;28;20407;-70
2022/12/02 00:15:40;;;;;;;16.40;12.10;;;;;;;8.18;60.34;98344.50;8379692;28;20274;-70
2022/12/02 00:19:43;;;;;;;16.27;12.67;;;;;;;8.02;60.79;98342.38;8379733;28;20444;-70
2022/12/02 00:23:46;;;;;;;17.10;12.37;;;;;;;8.01;60.63;98322.66;8379534;28;20233;-70
2022/12/02 00:27:50;;;;;;;16.10;12.17;;;;;;;8.07;60.81;98336.22;8379392;28;20232;-70
2022/12/02 00:31:53;;;;;;;17.77;13.27;;;;;;;7.96;60.98;98327.06;8379075;28;20233;-69
2022/12/02 00:35:56;;;;;;;16.43;12.67;;;;;;;8.11;60.94;98330.97;8379502;28;20594;-70
2022/12/02 00:39:58;;;;;;;14.60;11.77;;;;;;;8.08;60.88;98325.88;8379600;28;20244;-70
2022/12/02 00:48:23;;;;;;;17.13;12.27;;;;;;;7.98;61.26;98327.88;8385283;28;20426;-70
2022/12/02 00:52:26;;;;;;;16.13;12.33;;;;;;;7.96;60.86;98318.50;8385494;28;20505;-70
2022/12/02 00:56:29;;;;;;;18.20;13.07;;;;;;;8.00;60.81;98312.38;8385405;28;20244;-70
2022/12/02 01:00:33;;;;;;;17.37;13.00;;;;;;;8.00;61.20;98313.19;8385104;28;20237;-70
2022/12/02 01:04:36;;;;;;;17.70;12.57;;;;;;;8.11;60.51;98312.03;8385077;28;20421;-70
2022/12/02 01:08:38;;;;;;;16.80;12.33;;;;;;;8.02;60.28;98306.25;8384797;28;20499;-70
2022/12/02 01:12:41;;;;;;;16.47;13.20;;;;;;;7.95;60.52;98311.63;8384738;28;20225;-70
2022/12/02 01:16:45;;;;;;;18.80;13.20;;;;;;;8.05;60.66;98299.31;8384531;28;20278;-70
2022/12/02 01:20:48;;;;;;;17.30;13.07;;;;;;;7.94;60.90;98305.66;8384649;28;20267;-70
2022/12/02 01:24:51;;;;;;;18.47;13.57;;;;;;;7.83;60.85;98300.78;8384117;28;20235;-70
2022/12/02 01:28:55;;;;;;;18.10;13.73;;;;;;;7.98;60.44;98298.66;8383916;28;20239;-69
2022/12/02 01:32:59;;;;;;;18.53;13.33;;;;;;;7.86;60.47;98296.41;8384044;28;20229;-70
2022/12/02 01:37:02;;;;;;;17.57;12.60;;;;;;;7.82;60.15;98291.38;8383937;28;20236;-71
2022/12/02 01:41:05;;;;;;;15.27;12.47;;;;;;;7.93;60.52;98300.53;8383850;28;20229;-70
2022/12/02 01:45:10;;;;;;;18.17;13.13;;;;;;;7.76;60.57;98298.41;8383790;28;20255;-70
2022/12/02 01:49:14;;;;;;;17.27;13.00;;;;;;;7.75;60.03;98300.16;8383743;28;20241;-70
2022/12/02 01:53:17;;;;;;;17.47;12.67;;;;;;;7.91;60.26;98297.97;8383030;28;20517;-70
2022/12/02 01:57:23;;;;;;;19.57;13.40;;;;;;;7.86;60.22;98299.84;8383356;28;20233;-70
2022/12/02 02:01:27;;;;;;;16.30;12.50;;;;;;;7.88;60.30;98294.66;8383226;28;20489;-70
2022/12/02 02:05:32;;;;;;;16.77;12.70;;;;;;;7.89;60.52;98286.03;8383186;28;20413;-70
2022/12/02 02:09:35;;;;;;;16.40;12.67;;;;;;;7.94;59.98;98294.47;8383090;28;20585;-70
2022/12/02 02:13:38;;;;;;;17.00;12.27;;;;;;;7.80;60.89;98289.69;8383472;28;20562;-70
2022/12/02 02:17:40;;;;;;;16.47;12.17;;;;;;;7.78;60.58;98283.75;8382911;28;20236;-70
2022/12/02 02:21:48;;;;;;;15.83;12.37;;;;;;;7.84;60.19;98291.31;8382969;28;20248;-70
2022/12/02 02:25:54;;;;;;;19.43;12.53;;;;;;;7.56;60.67;98283.50;8382352;28;20275;-70
2022/12/02 02:29:57;;;;;;;16.23;11.90;;;;;;;7.80;59.78;98266.50;8382032;28;20274;-70
2022/12/02 02:34:00;;;;;;;17.70;13.43;;;;;;;7.40;60.34;98280.47;8382296;28;20229;-71
2022/12/02 02:38:03;;;;;;;17.33;12.93;;;;;;;7.54;60.79;98273.25;8382042;28;20243;-70
2022/12/02 02:42:07;;;;;;;17.50;12.53;;;;;;;7.67;59.92;98265.16;8382073;28;20237;-70
2022/12/02 02:46:10;;;;;;;15.63;12.07;;;;;;;7.58;60.68;98269.69;8381989;28;20517;-70
2022/12/02 02:50:13;;;;;;;16.73;12.93;;;;;;;7.51;60.59;98262.16;8381988;28;20229;-70
2022/12/02 02:54:16;;;;;;;16.53;12.83;;;;;;;7.66;60.50;98263.47;8381660;28;20256;-70
2022/12/02 02:58:22;;;;;;;18.37;12.67;;;;;;;7.54;60.90;98257.78;8381549;28;20243;-70
2022/12/02 03:02:25;;;;;;;17.60;12.93;;;;;;;7.45;60.82;98260.59;8381479;28;20394;-70
2022/12/02 03:06:31;;;;;;;14.10;11.43;;;;;;;7.52;61.02;98245.78;8380538;28;20233;-70
2022/12/02 03:10:33;;;;;;;17.50;12.93;;;;;;;7.63;60.91;98252.38;8381164;28;20513;-70
2022/12/02 03:14:37;;;;;;;16.30;12.87;;;;;;;7.67;60.70;98245.38;8381114;28;20224;-70
2022/12/02 03:18:41;;;;;;;16.33;12.80;;;;;;;7.50;61.02;98245.00;8381142;28;20232;-70
2022/12/02 03:22:44;;;;;;;15.90;12.03;;;;;;;7.31;60.68;98248.09;8380965;28;20229;-71
2022/12/02 03:26:47;;;;;;;16.20;11.93;;;;;;;7.48;61.13;98247.59;8380655;28;20244;-70
2022/12/02 03:30:51;;;;;;;18.00;13.33;;;;;;;7.38;60.65;98220.41;8380763;28;20229;-70
2022/12/02 03:34:54;;;;;;;16.47;12.50;;;;;;;7.52;60.60;98244.09;8380181;28;20229;-71
2022/12/02 03:38:57;;;;;;;17.63;12.97;;;;;;;7.40;60.88;98249.56;8380750;28;20508;-70
2022/12/02 03:43:00;;;;;;;16.80;12.87;;;;;;;7.27;60.86;98228.41;8380492;28;20221;-69
2022/12/02 03:47:04;;;;;;;16.10;12.97;;;;;;;7.32;60.76;98231.72;8380109;28;20233;-70
2022/12/02 03:51:08;;;;;;;18.20;13.40;;;;;;;7.30;60.93;98232.66;8380154;28;20300;-70
2022/12/02 03:55:11;;;;;;;15.37;12.10;;;;;;;7.26;61.20;98231.91;8380341;28;20228;-70
2022/12/02 03:59:19;;;;;;;17.00;12.33;;;;;;;7.50;60.41;98226.94;8380250;28;20228;-70
2022/12/02 04:03:23;;;;;;;18.73;13.63;;;;;;;7.39;60.77;98222.94;8380362;28;20232;-70
2022/12/02 04:07:26;;;;;;;17.73;13.43;;;;;;;7.24;60.98;98221.63;8380126;28;20233;-70
2022/12/02 04:11:29;;;;;;;18.93;13.67;;;;;;;7.40;60.21;98219.47;8380088;28;20252;-70
2022/12/02 04:15:32;;;;;;;18.47;13.63;;;;;;;7.09;60.94;98219.47;8379780;28;20511;-70
2022/12/02 04:19:36;;;;;;;16.40;13.43;;;;;;;7.18;60.60;98214.06;8386105;28;20235;-70
2022/12/02 04:23:38;;;;;;;16.13;12.17;;;;;;;7.08;61.42;98215.19;8386789;28;20294;-70
2022/12/02 04:27:41;;;;;;;17.10;12.50;;;;;;;7.29;59.82;98215.50;8386178;28;20568;-70
2022/12/02 04:31:44;;;;;;;17.73;13.27;;;;;;;7.23;60.64;98207.09;8385928;28;20240;-70
2022/12/02 04:35:48;;;;;;;17.27;12.83;;;;;;;7.18;60.87;98202.94;8386057;28;20251;-70
2022/12/02 04:39:50;;;;;;;17.87;13.00;;;;;;;7.17;59.93;98202.06;8385969;28;20236;-70
2022/12/02 04:43:53;;;;;;;18.00;11.93;;;;;;;7.11;61.04;98204.81;8385464;28;20521;-69
2022/12/02 04:47:56;;;;;;;15.37;12.03;;;;;;;7.12;60.86;98203.06;8385663;28;20235;-70
2022/12/02 04:52:00;;;;;;;16.40;12.70;;;;;;;7.04;60.73;98201.56;8385474;28;20236;-70
2022/12/02 04:56:03;;;;;;;17.90;13.47;;;;;;;7.15;60.57;98201.28;8385681;28;20233;-71
2022/12/02 05:00:08;;;;;;;17.97;13.80;;;;;;;7.15;60.34;98197.84;8385651;28;20225;-70
2022/12/02 05:04:10;;;;;;;16.10;12.73;;;;;;;7.00;60.52;98196.53;8385319;28;20229;-70
2022/12/02 05:08:15;;;;;;;14.30;11.83;;;;;;;6.65;60.74;98195.72;8384921;28;20225;-70
2022/12/02 05:12:18;;;;;;;14.40;10.97;;;;;;;7.17;60.19;98194.34;8385007;28;20237;-70
2022/12/02 05:16:20;;;;;;;15.37;12.20;;;;;;;6.99;60.36;98193.13;8384698;28;20567;-70
2022/12/02 05:20:23;;;;;;;16.93;12.97;;;;;;;6.77;59.78;98195.38;8384869;28;20225;-70
2022/12/02 05:24:28;;;;;;;15.33;11.83;;;;;;;6.85;60.57;98196.06;8384511;28;20275;-70
2022/12/02 05:28:31;;;;;;;16.37;12.07;;;;;;;6.96;60.30;98200.06;8383323;28;20237;-70
2022/12/02 05:32:34;;;;;;;15.07;11.17;;;;;;;6.93;60.57;98195.84;8384112;28;20224;-70
2022/12/02 05:36:37;;;;;;;16.43;12.00;;;;;;;6.72;60.94;98194.69;8384260;28;20239;-70
2022/12/02 05:40:41;;;;;;;16.27;12.53;;;;;;;6.78;61.00;98191.94;8384199;28;20324;-70
2022/12/02 05:44:43;;;;;;;18.67;12.83;;;;;;;6.55;60.88;98195.09;8384070;28;20603;-70
2022/12/02 05:48:49;;;;;;;14.90;12.13;;;;;;;6.65;61.28;98198.28;8383753;28;20279;-70
2022/12/02 05:52:51;;;;;;;15.40;12.00;;;;;;;6.59;61.13;98195.88;8383604;28;20236;-70
2022/12/02 05:56:56;;;;;;;16.00;12.90;;;;;;;6.73;60.96;98201.50;8375148;28;20287;-70
2022/12/02 06:01:00;;;;;;;14.40;11.73;;;;;;;6.76;61.11;98196.28;8383077;28;20259;-70
2022/12/02 06:05:12;;;;;;;16.60;12.70;;;;;;;6.69;61.13;98189.59;8383042;28;20236;-70
2022/12/02 06:09:18;;;;;;;16.33;12.00;;;;;;;6.42;60.40;98176.53;8383110;28;20233;-71
2022/12/02 06:13:24;;;;;;;15.10;12.00;;;;;;;6.76;60.50;98203.13;8383128;28;20224;-71
2022/12/02 06:17:26;;;;;;;18.27;13.80;;;;;;;6.50;60.05;98178.06;8382859;28;20228;-71
2022/12/02 06:21:29;;;;;;;15.50;12.43;;;;;;;6.60;60.30;98200.13;8382620;28;20252;-70
2022/12/02 06:25:32;;;;;;;15.50;12.23;;;;;;;6.77;60.53;98203.09;8381640;28;20221;-70
2022/12/02 06:29:37;;;;;;;14.87;12.47;;;;;;;6.74;60.49;98194.63;8346748;28;20232;-70
2022/12/02 06:33:40;;;;;;;16.77;12.47;;;;;;;6.68;59.85;98198.19;8349098;28;20229;-70
2022/12/02 06:37:43;;;;;;;16.50;13.00;;;;;;;6.51;60.92;98190.91;8348938;28;20229;-70
2022/12/02 06:41:46;;;;;;;15.13;12.53;;;;;;;6.37;60.39;98192.94;8348659;28;20230;-70
2022/12/02 06:45:50;;;;;;;15.73;12.77;;;;;;;6.52;60.91;98194.31;8348573;28;20230;-71
2022/12/02 06:49:53;;;;;;;14.10;11.63;;;;;;;6.52;59.62;98191.75;8323602;28;20254;-70
2022/12/02 06:53:56;;;;;;;12.67;11.20;;;;;;;6.45;61.03;98193.59;8315806;28;20226;-70
2022/12/02 06:58:01;;;;;;;13.07;10.67;;;;;;;6.63;60.32;98189.75;8315721;28;20613;-70
2022/12/02 07:02:15;;;;;;;15.43;12.47;;;;;;;6.53;60.41;98191.72;8315441;28;20226;-71
2022/12/02 07:06:20;;;;;;;14.30;11.07;;;;;;;6.38;60.92;98190.34;8315431;28;20230;-71
2022/12/02 07:10:28;;;;;;;11.13;9.93;;;;;;;6.46;59.95;98188.44;8314944;28;20241;-71
2022/12/02 07:14:37;;;;;;;12.13;10.53;;;;;;;6.51;59.71;98193.47;8315122;28;20549;-71
2022/12/02 07:18:41;;;;;;;12.67;10.47;;;;;;;6.53;60.14;98190.84;8315021;28;20237;-70
2022/12/02 07:22:47;;;;;;;14.03;10.73;;;;;;;6.46;59.58;98193.56;8314801;28;20280;-70
2022/12/02 07:26:50;;;;;;;13.30;10.80;;;;;;;6.36;60.02;98191.25;8332401;28;20228;-72
2022/12/02 07:30:56;;;;;;;12.10;10.40;;;;;;;6.44;60.41;98197.91;8371777;28;20237;-68
2022/12/02 07:35:01;;;;;;;11.70;9.83;;;;;;;6.54;59.52;98198.53;8380804;28;20299;-69
2022/12/02 07:39:03;;;;;;;11.53;9.97;;;;;;;6.40;59.67;98196.31;8380532;28;20244;-69
2022/12/02 07:43:08;;;;;;;11.07;9.57;;;;;;;6.52;59.37;98192.59;8380562;28;20240;-70
2022/12/02 07:47:11;;;;;;;12.47;10.30;;;;;;;6.34;59.85;98187.88;8380308;28;20232;-70
2022/12/02 07:51:15;;;;;;;14.57;11.37;;;;;;;6.17;59.96;98183.97;8379800;28;20370;-70
2022/12/02 07:55:18;;;;;;;12.00;9.77;;;;;;;6.46;59.70;98185.84;8380304;28;20447;-70
2022/12/02 07:59:27;;;;;;;11.80;10.00;;;;;;;6.52;59.05;98182.28;8379992;28;20228;-70
2022/12/02 08:03:30;;;;;;;12.93;10.37;;;;;;;6.64;58.75;98192.28;8380028;28;20286;-70
2022/12/02 08:07:34;;;;;;;12.17;10.30;;;;;;;6.42;58.24;98191.13;8380224;28;20256;-70
2022/12/02 08:11:38;;;;;;;12.83;10.73;;;;;;;6.47;58.23;98191.84;8379860;28;20233;-70
2022/12/02 08:15:40;;;;;;;13.10;10.43;;;;;;;6.60;58.76;98188.09;8379977;28;20229;-70
2022/12/02 08:19:43;;;;;;;11.80;9.43;;;;;;;6.71;58.78;98194.72;8380067;28;20239;-70
2022/12/02 08:23:47;;;;;;;12.90;9.90;;;;;;;6.47;59.13;98191.84;8379930;28;20228;-70
2022/12/02 08:27:50;;;;;;;11.33;10.10;;;;;;;6.75;58.35;98199.72;8379396;28;20237;-70
2022/12/02 08:31:52;;;;;;;12.67;11.03;;;;;;;6.61;59.13;98201.81;8371159;28;20229;-69
2022/12/02 08:35:55;;;;;;;13.97;11.13;;;;;;;6.77;58.43;98187.66;8379513;28;20275;-70
2022/12/02 08:39:59;;;;;;;11.93;10.40;;;;;;;6.69;58.16;98191.34;8379487;28;20221;-70
2022/12/02 08:44:02;;;;;;;12.60;10.57;;;;;;;6.70;58.35;98183.56;8379404;28;20237;-70
2022/12/02 08:48:05;;;;;;;12.53;9.70;;;;;;;6.89;58.41;98180.50;8379256;28;20240;-70
2022/12/02 08:52:08;;;;;;;13.07;10.23;;;;;;;6.94;58.14;98184.66;8379514;28;20232;-69
2022/12/02 08:56:12;;;;;;;12.80;10.53;;;;;;;6.90;58.40;98180.47;8379351;28;20225;-69
2022/12/02 09:00:16;;;;;;;13.10;10.23;;;;;;;7.01;58.36;98182.78;8379257;28;20235;-70
2022/12/02 09:04:18;;;;;;;13.33;10.97;;;;;;;6.96;58.56;98180.31;8381303;28;20236;-69
2022/12/02 09:08:21;;;;;;;15.07;11.77;;;;;;;6.77;58.75;98184.25;8384956;28;20487;-69
2022/12/02 09:12:26;;;;;;;15.90;12.07;;;;;;;6.88;58.63;98183.97;8385100;28;20459;-70
2022/12/02 09:16:29;;;;;;;15.47;11.73;;;;;;;6.95;58.48;98178.63;8384743;28;20236;-69
2022/12/02 09:20:32;;;;;;;16.83;12.10;;;;;;;7.04;58.34;98180.09;8384778;28;20244;-70
2022/12/02 09:24:34;;;;;;;12.90;9.63;;;;;;;9.84;83.89;98183.22;8384667;28;20233;-71
2022/12/02 09:28:39;;;;;;;13.53;10.77;;;;;;;10.44;65.69;98179.16;8384298;28;20449;-72
2022/12/02 09:32:51;;;;;;;17.33;12.17;;;;;;;9.28;55.60;98180.06;8383796;28;20300;-71
2022/12/02 09:36:53;;;;;;;17.93;12.97;;;;;;;8.49;56.18;98181.91;8383949;28;20229;-73
2022/12/02 09:40:56;;;;;;;17.10;12.73;;;;;;;8.22;55.78;98173.25;8384059;28;20229;-72
2022/12/02 09:45:01;;;;;;;17.67;13.30;;;;;;;7.91;56.92;98176.78;8383624;28;20236;-70
2022/12/02 09:49:04;;;;;;;19.47;14.50;;;;;;;7.70;56.81;98170.53;8383244;28;20275;-70
2022/12/02 09:53:07;;;;;;;20.43;14.57;;;;;;;7.64;56.96;98168.97;8383403;28;20578;-71
2022/12/02 09:57:11;;;;;;;20.87;15.03;;;;;;;7.54;57.49;98169.28;8383703;28;20580;-73
2022/12/02 10:01:16;;;;;;;19.87;14.87;;;;;;;7.37;57.51;98152.59;8383492;28;20244;-72
2022/12/02 10:05:20;;;;;;;22.30;15.27;;;;;;;7.56;57.19;98162.38;8383176;28;20404;-72
2022/12/02 10:09:27;;;;;;;38.77;26.87;;;;;;;7.40;56.78;98160.22;8383069;28;20232;-72
2022/12/02 10:13:34;;;;;;;90.93;28.37;;;;;;;7.40;57.69;98155.06;8382711;28;20228;-72
2022/12/02 10:17:38;;;;;;;42.27;29.93;;;;;;;7.27;57.69;98156.28;8382363;28;20398;-72
2022/12/02 10:21:41;;;;;;;44.10;31.50;;;;;;;7.17;59.09;98154.88;8382712;28;20274;-72
2022/12/02 10:25:45;;;;;;;28.53;18.73;;;;;;;7.18;58.53;98147.09;8382500;28;20244;-68
2022/12/02 10:29:48;;;;;;;27.87;17.60;;;;;;;6.92;58.97;98147.81;8381992;28;20237;-70
2022/12/02 10:33:57;;;;;;;110.47;78.70;;;;;;;6.54;60.35;98141.09;8381643;28;20358;-68
2022/12/02 10:37:59;;;;;;;51.47;37.57;;;;;;;6.85;60.55;98135.97;8382048;28;20244;-70
2022/12/02 10:42:15;;;;;;;34.93;25.50;;;;;;;6.21;62.80;98136.72;8381944;28;20236;-70
2022/12/02 10:46:18;;;;;;;32.37;22.60;;;;;;;6.28;63.00;98134.00;8382005;28;20229;-70
2022/12/02 10:50:24;;;;;;;33.37;22.20;;;;;;;6.73;60.00;98133.75;8381741;28;20229;-70
2022/12/02 10:54:28;;;;;;;31.03;20.73;;;;;;;6.77;61.16;98135.34;8381393;28;20236;-71
2022/12/02 10:58:31;;;;;;;32.97;21.87;;;;;;;5.95;63.08;98123.63;8381281;28;20603;-71
2022/12/02 11:02:36;;;;;;;34.23;21.63;;;;;;;6.40;62.71;98108.00;8381448;28;20232;-71
2022/12/02 11:06:40;;;;;;;34.67;22.10;;;;;;;6.73;61.49;98129.44;8381150;28;20232;-71
2022/12/02 11:10:45;;;;;;;31.50;20.73;;;;;;;6.70;60.83;98120.94;8380788;28;20240;-72
2022/12/02 11:14:56;;;;;;;34.40;21.77;;;;;;;6.73;61.72;98123.44;8380597;28;20233;-71
2022/12/02 11:19:04;;;;;;;29.13;20.00;;;;;;;6.92;61.21;98103.19;8373235;28;20248;-71
2022/12/02 11:23:26;;;;;;;30.07;19.67;;;;;;;7.01;60.35;98115.84;8380710;28;20532;-72
2022/12/02 11:27:29;;;;;;;29.17;18.93;;;;;;;7.08;60.63;98109.59;8380027;28;20256;-74
2022/12/02 11:31:32;;;;;;;30.70;21.03;;;;;;;6.78;61.48;98109.56;8380534;28;20232;-74
2022/12/02 11:36:12;;;;;;;31.93;20.73;;;;;;;6.96;61.34;98105.63;8380563;28;20232;-75
2022/12/02 11:41:00;;;;;;;36.30;24.13;;;;;;;6.81;61.81;98100.91;8380511;28;20224;-74
2022/12/02 11:45:55;;;;;;;30.50;20.47;;;;;;;6.02;62.93;98112.34;8380063;28;20240;-74
2022/12/02 11:50:12;;;;;;;31.37;20.60;;;;;;;6.78;62.80;98093.28;8379932;28;20243;-73
2022/12/02 11:54:17;;;;;;;33.83;20.77;;;;;;;6.95;61.35;98095.38;8380508;28;20228;-74
2022/12/02 11:58:23;;;;;;;29.17;18.23;;;;;;;7.08;61.59;98091.56;8380254;28;20255;-73
2022/12/02 12:02:27;;;;;;;32.90;20.37;;;;;;;7.11;61.08;98094.06;8380373;28;20279;-74
2022/12/02 12:06:33;;;;;;;32.17;21.10;;;;;;;6.43;62.81;98093.31;8380350;28;20419;-73
2022/12/02 12:10:38;;;;;;;36.63;22.10;;;;;;;5.92;64.64;98087.69;8380018;28;20228;-75
2022/12/02 12:14:57;;;;;;;35.53;22.67;;;;;;;6.14;67.64;98070.91;8379915;28;20224;-74
2022/12/02 12:19:02;;;;;;;42.57;25.17;;;;;;;6.39;63.14;98080.56;8379204;28;20266;-74
2022/12/02 12:23:27;;;;;;;37.13;23.27;;;;;;;6.14;63.87;98077.78;8379302;28;20229;-77
2022/12/02 12:27:36;;;;;;;44.63;26.50;;;;;;;6.15;64.21;98072.59;8379655;28;20256;-74
2022/12/02 12:31:39;;;;;;;40.90;25.03;;;;;;;5.80;64.58;98074.25;8379311;28;20252;-74
2022/12/02 12:35:43;;;;;;;44.40;25.43;;;;;;;6.33;63.87;98070.44;8379595;28;20229;-75
2022/12/02 12:39:46;;;;;;;37.33;24.53;;;;;;;6.23;63.55;98068.09;8383971;28;20290;-75
2022/12/02 12:43:49;;;;;;;40.03;26.33;;;;;;;5.65;64.43;98074.59;8385750;28;20298;-75
2022/12/02 12:47:52;;;;;;;41.03;26.00;;;;;;;5.18;65.37;98008.03;8385361;28;20233;-73
2022/12/02 12:51:56;;;;;;;39.63;26.00;;;;;;;5.92;64.45;98061.97;8385271;28;20232;-74
2022/12/02 12:55:59;;;;;;;40.33;25.60;;;;;;;5.53;64.69;98060.31;8385520;28;20240;-74
2022/12/02 13:00:04;;;;;;;40.87;25.40;;;;;;;6.07;63.76;98062.50;8385283;28;20439;-72
2022/12/02 13:04:07;;;;;;;37.97;26.37;;;;;;;6.59;62.82;98054.34;8385322;28;20228;-75
2022/12/02 13:08:11;;;;;;;43.83;26.77;;;;;;;6.43;62.11;98057.28;8385033;28;20240;-76
2022/12/02 13:12:15;;;;;;;39.90;25.47;;;;;;;6.54;62.62;98056.19;8384934;28;20287;-74
2022/12/02 13:16:17;;;;;;;39.60;25.73;;;;;;;6.60;62.42;98051.69;8384531;28;20228;-74
2022/12/02 13:20:20;;;;;;;43.53;27.20;;;;;;;7.04;63.60;98067.66;8384931;28;20237;-74
2022/12/02 13:24:24;;;;;;;38.80;24.77;;;;;;;6.84;61.90;98059.66;8384488;28;20229;-75
2022/12/02 13:28:27;;;;;;;39.30;25.40;;;;;;;6.85;62.06;98056.16;8384279;28;20249;-74
2022/12/02 13:32:30;;;;;;;42.70;26.73;;;;;;;5.72;64.63;98068.44;8384408;28;20240;-75
2022/12/02 13:36:33;;;;;;;37.87;25.57;;;;;;;5.95;64.73;98051.66;8384224;28;20229;-72
2022/12/02 13:40:40;;;;;;;41.03;26.30;;;;;;;6.62;61.19;98043.94;8384616;28;20292;-77
2022/12/02 13:44:44;;;;;;;41.63;26.33;;;;;;;6.64;62.07;98055.91;8384600;28;20228;-78
2022/12/02 13:48:46;;;;;;;42.47;27.10;;;;;;;6.33;62.34;98067.88;8383371;28;20517;-75
2022/12/02 13:52:49;;;;;;;38.97;24.93;;;;;;;5.83;63.47;98069.03;8383849;28;20429;-76
2022/12/02 13:56:53;;;;;;;41.37;25.10;;;;;;;5.80;63.87;98076.81;8382148;28;20280;-76
2022/12/02 14:00:56;;;;;;;41.13;25.97;;;;;;;5.60;63.63;98079.84;8383359;28;20323;-78
2022/12/02 14:04:59;;;;;;;39.63;24.90;;;;;;;5.43;65.78;98081.97;8383707;28;20239;-75
2022/12/02 14:09:09;;;;;;;39.13;24.73;;;;;;;5.90;63.48;98077.44;8383276;28;20544;-77
2022/12/02 14:13:14;;;;;;;36.47;23.87;;;;;;;5.89;63.25;98080.91;8383246;28;20232;-77
2022/12/02 14:17:22;;;;;;;36.53;22.87;;;;;;;5.98;63.53;98085.03;8383206;28;20233;-76
2022/12/02 14:21:25;;;;;;;37.97;24.40;;;;;;;5.84;63.06;98086.13;8383000;28;20237;-77
2022/12/02 14:25:28;;;;;;;36.40;23.17;;;;;;;4.47;67.21;98086.41;8383107;28;20233;-76
2022/12/02 14:29:32;;;;;;;36.47;23.63;;;;;;;5.34;65.50;98087.28;8382325;28;20358;-75
2022/12/02 14:33:35;;;;;;;34.77;22.73;;;;;;;5.08;66.40;98080.97;8382729;28;20228;-75
2022/12/02 14:37:59;;;;;;;37.10;22.83;;;;;;;5.46;65.09;98087.88;8381937;28;20314;-75
2022/12/02 14:42:02;;;;;;;37.67;23.50;;;;;;;5.24;64.48;98058.41;8382247;28;20221;-76
2022/12/02 14:46:06;;;;;;;37.27;23.60;;;;;;;5.69;64.23;98086.50;8382295;28;20229;-75
2022/12/02 14:50:09;;;;;;;37.43;23.97;;;;;;;5.20;65.38;98090.16;8381896;28;20336;-75
2022/12/02 14:54:12;;;;;;;32.80;22.33;;;;;;;5.43;64.49;98087.94;8381869;28;20220;-76
2022/12/02 14:58:14;;;;;;;33.70;22.17;;;;;;;4.68;66.96;98084.31;8381963;28;20236;-78
2022/12/02 15:02:18;;;;;;;30.53;21.17;;;;;;;5.07;65.67;98081.84;8381912;28;20536;-75
2022/12/02 15:06:21;;;;;;;30.97;20.57;;;;;;;5.43;63.67;98081.97;8382782;28;20574;-77
2022/12/02 15:10:24;;;;;;;27.93;19.30;;;;;;;5.37;65.96;98088.06;8381500;28;20282;-75
2022/12/02 15:14:27;;;;;;;39.03;26.47;;;;;;;5.67;63.96;98094.25;8383638;28;20236;-77
2022/12/02 15:18:31;;;;;;;31.30;21.73;;;;;;;5.65;64.47;98087.44;8383644;28;20239;-77
2022/12/02 15:22:34;;;;;;;34.20;22.97;;;;;;;5.01;66.52;98092.25;8383688;28;20236;-75
2022/12/02 15:26:36;;;;;;;33.50;22.77;;;;;;;5.34;65.13;98100.13;8382285;28;20300;-77
2022/12/02 15:30:39;;;;;;;29.67;19.47;;;;;;;5.80;63.98;98092.22;8381437;28;20237;-77
2022/12/02 15:34:44;;;;;;;28.37;19.90;;;;;;;5.87;62.54;98087.81;8381015;28;20288;-76
2022/12/02 15:38:47;;;;;;;30.30;20.80;;;;;;;5.96;63.38;98100.50;8380835;28;20520;-74
2022/12/02 15:42:50;;;;;;;38.30;25.47;;;;;;;6.04;63.09;98097.72;8380580;28;20221;-77
2022/12/02 15:46:53;;;;;;;34.87;24.27;;;;;;;6.11;62.17;98081.28;8372781;28;20283;-75
2022/12/02 15:50:57;;;;;;;31.87;21.00;;;;;;;6.12;62.16;98095.81;8380642;28;20229;-75
2022/12/02 15:55:00;;;;;;;33.87;22.13;;;;;;;5.97;63.27;98097.00;8380426;28;20239;-76
2022/12/02 15:59:03;;;;;;;29.77;22.00;;;;;;;6.31;61.83;98100.50;8380442;28;20244;-75
2022/12/02 16:03:05;;;;;;;29.70;21.00;;;;;;;5.84;62.81;98100.72;8380497;28;20524;-75
2022/12/02 16:07:09;;;;;;;30.37;20.80;;;;;;;5.47;64.94;98107.53;8380046;28;20279;-75
2022/12/02 16:11:12;;;;;;;29.47;20.50;;;;;;;6.10;62.49;98112.16;8379973;28;20248;-74
2022/12/02 16:15:15;;;;;;;29.37;20.23;;;;;;;6.26;61.97;98110.88;8385467;28;20270;-74
2022/12/02 16:19:17;;;;;;;31.47;23.70;;;;;;;5.85;63.65;98113.53;8387195;28;20228;-73
2022/12/02 16:23:21;;;;;;;29.70;20.60;;;;;;;6.25;62.16;98109.22;8386734;28;20252;-74
2022/12/02 16:27:24;;;;;;;27.83;19.57;;;;;;;6.33;61.65;98109.88;8386522;28;20236;-74
2022/12/02 16:31:27;;;;;;;28.03;19.40;;;;;;;5.86;62.66;98110.09;8386868;28;20255;-74
2022/12/02 16:35:30;;;;;;;29.40;20.30;;;;;;;6.11;62.72;98117.28;8386407;28;20528;-73
2022/12/02 16:39:34;;;;;;;28.57;20.30;;;;;;;5.56;62.43;98060.25;8386110;28;20431;-74
2022/12/02 16:43:37;;;;;;;25.93;19.07;;;;;;;6.06;62.74;98119.94;8385592;28;20239;-74
2022/12/02 16:47:39;;;;;;;28.23;20.00;;;;;;;6.11;62.19;98122.41;8386097;28;20528;-72
2022/12/02 16:51:42;;;;;;;29.60;19.60;;;;;;;6.07;61.44;98119.06;8385996;28;20237;-74
2022/12/02 16:55:46;;;;;;;28.37;20.23;;;;;;;6.05;61.10;98127.69;8385630;28;20294;-74
2022/12/02 16:59:49;;;;;;;29.07;20.57;;;;;;;6.02;62.25;98127.78;8385604;28;20517;-73
2022/12/02 17:03:51;;;;;;;24.93;18.17;;;;;;;6.04;61.64;98126.84;8385135;28;20229;-73
2022/12/02 17:07:54;;;;;;;26.97;19.23;;;;;;;6.32;61.26;98130.47;8384828;28;20228;-74
2022/12/02 17:11:59;;;;;;;27.27;19.63;;;;;;;5.65;61.55;98134.56;8385058;28;20232;-74
2022/12/02 17:16:01;;;;;;;28.20;19.83;;;;;;;5.96;61.84;98128.75;8384662;28;20327;-74
2022/12/02 17:20:05;;;;;;;28.77;20.50;;;;;;;5.71;62.12;98146.41;8384872;28;20232;-74
2022/12/02 17:24:08;;;;;;;27.10;19.97;;;;;;;6.09;61.79;98128.47;8383564;28;20233;-75
2022/12/02 17:28:13;;;;;;;31.20;21.50;;;;;;;5.75;61.91;98131.78;8384441;28;20252;-76
2022/12/02 17:32:15;;;;;;;26.73;18.93;;;;;;;6.08;61.90;98137.91;8384422;28;20528;-76
2022/12/02 17:36:18;;;;;;;28.83;20.77;;;;;;;6.19;60.55;98142.81;8384246;28;20229;-75
2022/12/02 17:40:21;;;;;;;23.97;18.03;;;;;;;6.03;60.85;98138.00;8384371;28;20524;-74
2022/12/02 17:44:26;;;;;;;26.73;18.90;;;;;;;6.03;61.77;98145.72;8383770;28;20233;-75
2022/12/02 17:48:28;;;;;;;27.57;20.03;;;;;;;5.28;62.93;98142.19;8383822;28;20472;-74
2022/12/02 17:52:31;;;;;;;25.27;18.97;;;;;;;6.11;61.72;98147.25;8383732;28;20236;-73
2022/12/02 17:56:34;;;;;;;27.07;19.57;;;;;;;6.23;61.16;98145.25;8383569;28;20587;-75
2022/12/02 18:00:38;;;;;;;26.13;18.90;;;;;;;6.33;60.70;98155.31;8383080;28;20233;-75
2022/12/02 18:04:42;;;;;;;26.73;19.27;;;;;;;6.13;60.76;98159.22;8383559;28;20231;-75
2022/12/02 18:08:46;;;;;;;27.27;19.30;;;;;;;6.29;60.59;98149.41;8383619;28;20294;-75
2022/12/02 18:12:48;;;;;;;26.80;19.63;;;;;;;6.26;60.88;98155.47;8383517;28;20312;-75
2022/12/02 18:16:53;;;;;;;30.63;21.17;;;;;;;5.98;61.15;98154.44;8383247;28;20228;-74
2022/12/02 18:20:56;;;;;;;26.20;18.90;;;;;;;6.03;61.15;98153.44;8382964;28;20582;-75
2022/12/02 18:24:58;;;;;;;24.27;18.13;;;;;;;6.12;61.03;98154.13;8383073;28;20244;-75
2022/12/02 18:29:01;;;;;;;26.47;18.60;;;;;;;6.28;60.54;98152.00;8382340;28;20240;-75
2022/12/02 18:33:05;;;;;;;25.97;19.47;;;;;;;6.20;60.45;98149.63;8382492;28;20260;-75
2022/12/02 18:37:08;;;;;;;26.23;18.63;;;;;;;5.95;60.41;98147.63;8382356;28;20421;-75
2022/12/02 18:41:14;;;;;;;26.83;19.97;;;;;;;6.09;60.84;98149.03;8382564;28;20406;-75
2022/12/02 18:45:17;;;;;;;25.37;19.13;;;;;;;6.13;60.84;98137.78;8382191;28;20270;-75
2022/12/02 18:49:21;;;;;;;30.20;21.77;;;;;;;5.56;61.52;98142.47;8382073;28;20252;-75
2022/12/02 18:53:24;;;;;;;29.00;19.43;;;;;;;6.03;61.43;98145.72;8382192;28;20232;-74
2022/12/02 18:57:26;;;;;;;28.90;19.60;;;;;;;6.15;60.70;98148.88;8381920;28;20229;-77
2022/12/02 19:01:29;;;;;;;31.30;21.23;;;;;;;6.12;60.57;98144.66;8381965;28;20233;-73